sensor_id;sensor_type;location;lat;lon;timestamp;P1;durP1;ratioP1;P2;durP2;ratioP2
67028;SDS011;53934;52.142;11.738;2022-07-29T00:00:17;4.50;;;1.20;;
67028;SDS011;53934;52.142;11.738;2022-07-29T00:02:43;9.85;;;1.75;;
67028;SDS011;53934;52.142;11.738;2022-07-29T00:05:09;2.35;;;1.20;;
67028;SDS011;53934;52.142;11.738;2022-07-29T00:07:38;3.95;;;1.08;;
67028;SDS011;53934;52.142;11.738;2022-07-29T00:10:05;3.28;;;1.20;;
67028;SDS011;53934;52.142;11.738;2022-07-29T00:12:31;2.85;;;1.17;;
67028;SDS011;53934;52.142;11.738;2022-07-29T00:14:59;3.88;;;1.30;;
67028;SDS011;53934;52.142;11.738;2022-07-29T00:17:26;6.68;;;1.50;;
67028;SDS011;53934;52.142;11.738;2022-07-29T00:19:52;6.70;;;1.25;;
67028;SDS011;53934;52.142;11.738;2022-07-29T00:22:18;3.47;;;1.15;;
67028;SDS011;53934;52.142;11.738;2022-07-29T00:24:46;3.13;;;1.20;;
67028;SDS011;53934;52.142;11.738;2022-07-29T00:27:13;4.85;;;1.20;;
67028;SDS011;53934;52.142;11.738;2022-07-29T00:29:39;4.65;;;1.58;;
67028;SDS011;53934;52.142;11.738;2022-07-29T00:32:07;5.40;;;1.30;;
67028;SDS011;53934;52.142;11.738;2022-07-29T00:34:34;3.78;;;1.30;;
67028;SDS011;53934;52.142;11.738;2022-07-29T00:37:18;4.40;;;1.40;;
67028;SDS011;53934;52.142;11.738;2022-07-29T00:39:44;4.53;;;1.20;;
67028;SDS011;53934;52.142;11.738;2022-07-29T00:42:10;2.42;;;1.17;;
67028;SDS011;53934;52.142;11.738;2022-07-29T00:44:37;2.80;;;1.08;;
67028;SDS011;53934;52.142;11.738;2022-07-29T00:47:04;5.07;;;1.38;;
67028;SDS011;53934;52.142;11.738;2022-07-29T00:49:33;3.33;;;1.30;;
67028;SDS011;53934;52.142;11.738;2022-07-29T00:52:00;1.90;;;1.10;;
67028;SDS011;53934;52.142;11.738;2022-07-29T00:54:27;4.78;;;1.45;;
67028;SDS011;53934;52.142;11.738;2022-07-29T00:56:54;5.53;;;1.50;;
67028;SDS011;53934;52.142;11.738;2022-07-29T00:59:21;4.47;;;1.40;;
67028;SDS011;53934;52.142;11.738;2022-07-29T01:01:47;3.00;;;1.30;;
67028;SDS011;53934;52.142;11.738;2022-07-29T01:04:13;6.18;;;1.80;;
67028;SDS011;53934;52.142;11.738;2022-07-29T01:06:41;3.95;;;1.40;;
67028;SDS011;53934;52.142;11.738;2022-07-29T01:09:09;6.55;;;1.42;;
67028;SDS011;53934;52.142;11.738;2022-07-29T01:11:35;4.80;;;1.70;;
67028;SDS011;53934;52.142;11.738;2022-07-29T01:14:02;5.18;;;1.50;;
67028;SDS011;53934;52.142;11.738;2022-07-29T01:16:32;5.22;;;2.38;;
67028;SDS011;53934;52.142;11.738;2022-07-29T01:19:06;3.90;;;1.40;;
67028;SDS011;53934;52.142;11.738;2022-07-29T01:21:44;4.35;;;1.50;;
67028;SDS011;53934;52.142;11.738;2022-07-29T01:24:29;4.47;;;1.52;;
67028;SDS011;53934;52.142;11.738;2022-07-29T01:27:04;4.20;;;1.83;;
67028;SDS011;53934;52.142;11.738;2022-07-29T01:29:41;3.05;;;1.80;;
67028;SDS011;53934;52.142;11.738;2022-07-29T01:32:11;4.65;;;1.58;;
67028;SDS011;53934;52.142;11.738;2022-07-29T01:34:41;5.10;;;1.50;;
67028;SDS011;53934;52.142;11.738;2022-07-29T01:37:13;7.63;;;1.48;;
67028;SDS011;53934;52.142;11.738;2022-07-29T01:39:44;4.75;;;1.60;;
67028;SDS011;53934;52.142;11.738;2022-07-29T01:42:14;3.30;;;2.00;;
67028;SDS011;53934;52.142;11.738;2022-07-29T01:44:49;7.70;;;1.95;;
67028;SDS011;53934;52.142;11.738;2022-07-29T01:47:23;4.70;;;1.60;;
67028;SDS011;53934;52.142;11.738;2022-07-29T01:49:56;4.65;;;1.70;;
67028;SDS011;53934;52.142;11.738;2022-07-29T01:52:27;4.15;;;1.63;;
67028;SDS011;53934;52.142;11.738;2022-07-29T01:55:01;3.58;;;1.25;;
67028;SDS011;53934;52.142;11.738;2022-07-29T01:57:31;3.50;;;1.70;;
67028;SDS011;53934;52.142;11.738;2022-07-29T02:00:01;3.88;;;1.88;;
67028;SDS011;53934;52.142;11.738;2022-07-29T02:02:29;3.50;;;1.60;;
67028;SDS011;53934;52.142;11.738;2022-07-29T02:04:57;4.60;;;1.45;;
67028;SDS011;53934;52.142;11.738;2022-07-29T02:07:27;2.38;;;1.30;;
67028;SDS011;53934;52.142;11.738;2022-07-29T02:09:55;11.70;;;1.70;;
67028;SDS011;53934;52.142;11.738;2022-07-29T02:12:24;2.97;;;1.45;;
67028;SDS011;53934;52.142;11.738;2022-07-29T02:14:52;4.50;;;1.75;;
67028;SDS011;53934;52.142;11.738;2022-07-29T02:17:23;5.00;;;1.50;;
67028;SDS011;53934;52.142;11.738;2022-07-29T02:19:53;12.32;;;1.88;;
67028;SDS011;53934;52.142;11.738;2022-07-29T02:22:23;4.38;;;1.90;;
67028;SDS011;53934;52.142;11.738;2022-07-29T02:24:51;5.47;;;1.65;;
67028;SDS011;53934;52.142;11.738;2022-07-29T02:27:19;5.72;;;1.83;;
67028;SDS011;53934;52.142;11.738;2022-07-29T02:29:46;5.75;;;1.73;;
67028;SDS011;53934;52.142;11.738;2022-07-29T02:32:15;5.68;;;1.73;;
67028;SDS011;53934;52.142;11.738;2022-07-29T02:34:44;4.30;;;1.67;;
67028;SDS011;53934;52.142;11.738;2022-07-29T02:37:12;4.30;;;1.75;;
67028;SDS011;53934;52.142;11.738;2022-07-29T02:39:40;3.33;;;1.73;;
67028;SDS011;53934;52.142;11.738;2022-07-29T02:42:10;4.15;;;1.58;;
67028;SDS011;53934;52.142;11.738;2022-07-29T02:44:38;2.80;;;1.50;;
67028;SDS011;53934;52.142;11.738;2022-07-29T02:47:07;5.47;;;1.77;;
67028;SDS011;53934;52.142;11.738;2022-07-29T02:49:41;5.13;;;1.83;;
67028;SDS011;53934;52.142;11.738;2022-07-29T02:52:17;15.85;;;2.50;;
67028;SDS011;53934;52.142;11.738;2022-07-29T02:54:58;3.42;;;1.88;;
67028;SDS011;53934;52.142;11.738;2022-07-29T02:57:30;6.18;;;1.98;;
67028;SDS011;53934;52.142;11.738;2022-07-29T03:00:01;4.95;;;2.30;;
67028;SDS011;53934;52.142;11.738;2022-07-29T03:02:30;4.47;;;2.10;;
67028;SDS011;53934;52.142;11.738;2022-07-29T03:05:01;4.82;;;1.85;;
67028;SDS011;53934;52.142;11.738;2022-07-29T03:07:29;8.25;;;2.28;;
67028;SDS011;53934;52.142;11.738;2022-07-29T03:09:55;5.45;;;2.13;;
67028;SDS011;53934;52.142;11.738;2022-07-29T03:12:22;4.38;;;2.20;;
67028;SDS011;53934;52.142;11.738;2022-07-29T03:14:49;6.15;;;1.80;;
67028;SDS011;53934;52.142;11.738;2022-07-29T03:17:17;3.03;;;1.98;;
67028;SDS011;53934;52.142;11.738;2022-07-29T03:19:44;5.40;;;1.95;;
67028;SDS011;53934;52.142;11.738;2022-07-29T03:22:11;4.63;;;2.35;;
67028;SDS011;53934;52.142;11.738;2022-07-29T03:24:38;8.63;;;2.40;;
67028;SDS011;53934;52.142;11.738;2022-07-29T03:27:04;10.82;;;2.80;;
67028;SDS011;53934;52.142;11.738;2022-07-29T03:29:31;12.75;;;2.75;;
67028;SDS011;53934;52.142;11.738;2022-07-29T03:31:58;5.22;;;2.10;;
67028;SDS011;53934;52.142;11.738;2022-07-29T03:34:24;11.27;;;2.30;;
67028;SDS011;53934;52.142;11.738;2022-07-29T03:36:50;6.32;;;2.47;;
67028;SDS011;53934;52.142;11.738;2022-07-29T03:39:20;6.85;;;2.60;;
67028;SDS011;53934;52.142;11.738;2022-07-29T03:41:50;7.22;;;2.22;;
67028;SDS011;53934;52.142;11.738;2022-07-29T03:44:19;4.85;;;2.05;;
67028;SDS011;53934;52.142;11.738;2022-07-29T03:46:47;4.85;;;2.70;;
67028;SDS011;53934;52.142;11.738;2022-07-29T03:49:16;6.75;;;2.45;;
67028;SDS011;53934;52.142;11.738;2022-07-29T03:51:45;6.20;;;2.85;;
67028;SDS011;53934;52.142;11.738;2022-07-29T03:54:12;8.73;;;2.22;;
67028;SDS011;53934;52.142;11.738;2022-07-29T03:56:42;7.47;;;2.70;;
67028;SDS011;53934;52.142;11.738;2022-07-29T03:59:12;4.32;;;2.22;;
67028;SDS011;53934;52.142;11.738;2022-07-29T04:01:41;4.60;;;2.35;;
67028;SDS011;53934;52.142;11.738;2022-07-29T04:04:08;7.18;;;2.42;;
67028;SDS011;53934;52.142;11.738;2022-07-29T04:06:38;8.13;;;2.70;;
67028;SDS011;53934;52.142;11.738;2022-07-29T04:09:05;5.45;;;2.53;;
67028;SDS011;53934;52.142;11.738;2022-07-29T04:11:31;7.93;;;3.00;;
67028;SDS011;53934;52.142;11.738;2022-07-29T04:14:00;6.90;;;2.80;;
67028;SDS011;53934;52.142;11.738;2022-07-29T04:16:26;9.45;;;2.88;;
67028;SDS011;53934;52.142;11.738;2022-07-29T04:18:53;5.28;;;2.90;;
67028;SDS011;53934;52.142;11.738;2022-07-29T04:21:19;6.97;;;2.95;;
67028;SDS011;53934;52.142;11.738;2022-07-29T04:23:45;6.40;;;2.55;;
67028;SDS011;53934;52.142;11.738;2022-07-29T04:26:14;8.55;;;2.67;;
67028;SDS011;53934;52.142;11.738;2022-07-29T04:28:41;9.38;;;2.78;;
67028;SDS011;53934;52.142;11.738;2022-07-29T04:31:09;7.15;;;2.97;;
67028;SDS011;53934;52.142;11.738;2022-07-29T04:33:35;4.65;;;2.70;;
67028;SDS011;53934;52.142;11.738;2022-07-29T04:36:02;17.88;;;3.85;;
67028;SDS011;53934;52.142;11.738;2022-07-29T04:38:28;3.65;;;2.40;;
67028;SDS011;53934;52.142;11.738;2022-07-29T04:40:55;6.22;;;2.60;;
67028;SDS011;53934;52.142;11.738;2022-07-29T04:43:21;8.77;;;4.07;;
67028;SDS011;53934;52.142;11.738;2022-07-29T04:45:49;4.93;;;2.78;;
67028;SDS011;53934;52.142;11.738;2022-07-29T04:48:16;6.28;;;2.88;;
67028;SDS011;53934;52.142;11.738;2022-07-29T04:50:43;7.22;;;3.00;;
67028;SDS011;53934;52.142;11.738;2022-07-29T04:53:10;13.00;;;3.20;;
67028;SDS011;53934;52.142;11.738;2022-07-29T04:55:36;6.75;;;3.30;;
67028;SDS011;53934;52.142;11.738;2022-07-29T04:58:02;6.72;;;3.22;;
67028;SDS011;53934;52.142;11.738;2022-07-29T05:00:29;7.97;;;2.72;;
67028;SDS011;53934;52.142;11.738;2022-07-29T05:02:55;4.68;;;2.67;;
67028;SDS011;53934;52.142;11.738;2022-07-29T05:05:23;5.53;;;3.00;;
67028;SDS011;53934;52.142;11.738;2022-07-29T05:07:49;4.25;;;2.80;;
67028;SDS011;53934;52.142;11.738;2022-07-29T05:10:15;6.65;;;2.83;;
67028;SDS011;53934;52.142;11.738;2022-07-29T05:12:42;7.00;;;2.92;;
67028;SDS011;53934;52.142;11.738;2022-07-29T05:15:09;5.38;;;2.85;;
67028;SDS011;53934;52.142;11.738;2022-07-29T05:17:35;8.05;;;3.20;;
67028;SDS011;53934;52.142;11.738;2022-07-29T05:20:02;6.60;;;2.78;;
67028;SDS011;53934;52.142;11.738;2022-07-29T05:22:31;3.63;;;2.55;;
67028;SDS011;53934;52.142;11.738;2022-07-29T05:24:58;9.30;;;3.08;;
67028;SDS011;53934;52.142;11.738;2022-07-29T05:27:24;5.25;;;2.80;;
67028;SDS011;53934;52.142;11.738;2022-07-29T05:29:51;4.97;;;2.70;;
67028;SDS011;53934;52.142;11.738;2022-07-29T05:32:17;7.97;;;2.90;;
67028;SDS011;53934;52.142;11.738;2022-07-29T05:34:43;8.35;;;3.10;;
67028;SDS011;53934;52.142;11.738;2022-07-29T05:37:10;9.68;;;2.90;;
67028;SDS011;53934;52.142;11.738;2022-07-29T05:39:39;7.43;;;3.13;;
67028;SDS011;53934;52.142;11.738;2022-07-29T05:42:07;6.28;;;2.45;;
67028;SDS011;53934;52.142;11.738;2022-07-29T05:44:35;8.35;;;3.10;;
67028;SDS011;53934;52.142;11.738;2022-07-29T05:47:02;6.55;;;2.67;;
67028;SDS011;53934;52.142;11.738;2022-07-29T05:49:28;5.57;;;3.03;;
67028;SDS011;53934;52.142;11.738;2022-07-29T05:51:55;4.80;;;2.80;;
67028;SDS011;53934;52.142;11.738;2022-07-29T05:54:21;5.50;;;3.03;;
67028;SDS011;53934;52.142;11.738;2022-07-29T05:56:49;7.13;;;3.22;;
67028;SDS011;53934;52.142;11.738;2022-07-29T05:59:15;11.48;;;2.75;;
67028;SDS011;53934;52.142;11.738;2022-07-29T06:01:41;8.35;;;3.00;;
67028;SDS011;53934;52.142;11.738;2022-07-29T06:04:08;7.68;;;2.95;;
67028;SDS011;53934;52.142;11.738;2022-07-29T06:06:34;7.80;;;2.80;;
67028;SDS011;53934;52.142;11.738;2022-07-29T06:09:00;4.93;;;2.70;;
67028;SDS011;53934;52.142;11.738;2022-07-29T06:11:27;19.02;;;3.30;;
67028;SDS011;53934;52.142;11.738;2022-07-29T06:13:55;10.48;;;2.95;;
67028;SDS011;53934;52.142;11.738;2022-07-29T06:16:21;5.72;;;3.00;;
67028;SDS011;53934;52.142;11.738;2022-07-29T06:18:47;5.43;;;2.75;;
67028;SDS011;53934;52.142;11.738;2022-07-29T06:21:14;5.93;;;3.22;;
67028;SDS011;53934;52.142;11.738;2022-07-29T06:23:40;4.43;;;2.90;;
67028;SDS011;53934;52.142;11.738;2022-07-29T06:26:06;7.93;;;3.20;;
67028;SDS011;53934;52.142;11.738;2022-07-29T06:28:33;16.15;;;3.30;;
67028;SDS011;53934;52.142;11.738;2022-07-29T06:31:01;6.10;;;2.67;;
67028;SDS011;53934;52.142;11.738;2022-07-29T06:33:27;8.43;;;3.13;;
67028;SDS011;53934;52.142;11.738;2022-07-29T06:35:54;9.77;;;2.95;;
67028;SDS011;53934;52.142;11.738;2022-07-29T06:38:20;5.85;;;2.60;;
67028;SDS011;53934;52.142;11.738;2022-07-29T06:40:47;6.88;;;3.22;;
67028;SDS011;53934;52.142;11.738;2022-07-29T06:43:30;6.95;;;2.83;;
67028;SDS011;53934;52.142;11.738;2022-07-29T06:46:03;8.02;;;3.22;;
67028;SDS011;53934;52.142;11.738;2022-07-29T06:48:30;18.55;;;3.30;;
67028;SDS011;53934;52.142;11.738;2022-07-29T06:50:57;8.13;;;3.08;;
67028;SDS011;53934;52.142;11.738;2022-07-29T06:53:24;7.07;;;3.13;;
67028;SDS011;53934;52.142;11.738;2022-07-29T06:55:51;6.35;;;3.10;;
67028;SDS011;53934;52.142;11.738;2022-07-29T06:58:17;6.00;;;2.83;;
67028;SDS011;53934;52.142;11.738;2022-07-29T07:00:45;8.88;;;2.97;;
67028;SDS011;53934;52.142;11.738;2022-07-29T07:03:13;11.98;;;3.08;;
67028;SDS011;53934;52.142;11.738;2022-07-29T07:05:40;5.38;;;3.17;;
67028;SDS011;53934;52.142;11.738;2022-07-29T07:08:06;6.22;;;3.00;;
67028;SDS011;53934;52.142;11.738;2022-07-29T07:10:33;8.38;;;2.88;;
67028;SDS011;53934;52.142;11.738;2022-07-29T07:13:00;5.22;;;3.30;;
67028;SDS011;53934;52.142;11.738;2022-07-29T07:15:26;9.68;;;3.22;;
67028;SDS011;53934;52.142;11.738;2022-07-29T07:17:53;6.32;;;3.00;;
67028;SDS011;53934;52.142;11.738;2022-07-29T07:20:21;10.40;;;3.08;;
67028;SDS011;53934;52.142;11.738;2022-07-29T07:22:47;7.72;;;3.22;;
67028;SDS011;53934;52.142;11.738;2022-07-29T07:25:13;6.95;;;2.97;;
67028;SDS011;53934;52.142;11.738;2022-07-29T07:27:40;7.05;;;2.55;;
67028;SDS011;53934;52.142;11.738;2022-07-29T07:30:07;7.07;;;2.70;;
67028;SDS011;53934;52.142;11.738;2022-07-29T07:32:34;6.38;;;3.03;;
67028;SDS011;53934;52.142;11.738;2022-07-29T07:35:02;12.43;;;2.85;;
67028;SDS011;53934;52.142;11.738;2022-07-29T07:37:31;9.77;;;3.10;;
67028;SDS011;53934;52.142;11.738;2022-07-29T07:39:58;5.28;;;2.72;;
67028;SDS011;53934;52.142;11.738;2022-07-29T07:42:24;10.98;;;2.90;;
67028;SDS011;53934;52.142;11.738;2022-07-29T07:44:51;7.80;;;2.75;;
67028;SDS011;53934;52.142;11.738;2022-07-29T07:47:17;10.75;;;3.33;;
67028;SDS011;53934;52.142;11.738;2022-07-29T07:49:44;8.45;;;2.88;;
67028;SDS011;53934;52.142;11.738;2022-07-29T07:52:11;6.45;;;2.95;;
67028;SDS011;53934;52.142;11.738;2022-07-29T07:54:38;6.70;;;2.75;;
67028;SDS011;53934;52.142;11.738;2022-07-29T07:57:05;10.57;;;2.80;;
67028;SDS011;53934;52.142;11.738;2022-07-29T07:59:31;5.47;;;2.78;;
67028;SDS011;53934;52.142;11.738;2022-07-29T08:01:58;5.50;;;3.08;;
67028;SDS011;53934;52.142;11.738;2022-07-29T08:04:25;4.75;;;2.75;;
67028;SDS011;53934;52.142;11.738;2022-07-29T08:06:52;5.85;;;2.97;;
67028;SDS011;53934;52.142;11.738;2022-07-29T08:09:19;6.88;;;3.03;;
67028;SDS011;53934;52.142;11.738;2022-07-29T08:11:46;8.30;;;3.03;;
67028;SDS011;53934;52.142;11.738;2022-07-29T08:14:13;4.70;;;2.72;;
67028;SDS011;53934;52.142;11.738;2022-07-29T08:16:39;5.00;;;2.95;;
67028;SDS011;53934;52.142;11.738;2022-07-29T08:19:07;9.73;;;3.30;;
67028;SDS011;53934;52.142;11.738;2022-07-29T08:21:33;7.72;;;2.90;;
67028;SDS011;53934;52.142;11.738;2022-07-29T08:23:59;8.13;;;3.17;;
67028;SDS011;53934;52.142;11.738;2022-07-29T08:26:40;6.35;;;2.80;;
67028;SDS011;53934;52.142;11.738;2022-07-29T08:29:08;7.93;;;2.88;;
67028;SDS011;53934;52.142;11.738;2022-07-29T08:31:34;12.02;;;3.38;;
67028;SDS011;53934;52.142;11.738;2022-07-29T08:34:00;7.75;;;2.83;;
67028;SDS011;53934;52.142;11.738;2022-07-29T08:36:27;11.70;;;2.80;;
67028;SDS011;53934;52.142;11.738;2022-07-29T08:38:54;14.68;;;2.97;;
67028;SDS011;53934;52.142;11.738;2022-07-29T08:41:20;7.70;;;3.05;;
67028;SDS011;53934;52.142;11.738;2022-07-29T08:43:47;8.00;;;3.13;;
67028;SDS011;53934;52.142;11.738;2022-07-29T08:46:15;8.18;;;2.67;;
67028;SDS011;53934;52.142;11.738;2022-07-29T08:48:42;7.60;;;2.75;;
67028;SDS011;53934;52.142;11.738;2022-07-29T08:51:12;15.65;;;2.58;;
67028;SDS011;53934;52.142;11.738;2022-07-29T08:53:40;16.45;;;3.33;;
67028;SDS011;53934;52.142;11.738;2022-07-29T08:56:11;6.07;;;2.95;;
67028;SDS011;53934;52.142;11.738;2022-07-29T08:58:38;5.70;;;2.30;;
67028;SDS011;53934;52.142;11.738;2022-07-29T09:01:05;10.75;;;2.80;;
67028;SDS011;53934;52.142;11.738;2022-07-29T09:03:35;8.02;;;2.67;;
67028;SDS011;53934;52.142;11.738;2022-07-29T09:06:04;9.57;;;3.00;;
67028;SDS011;53934;52.142;11.738;2022-07-29T09:08:31;8.15;;;2.72;;
67028;SDS011;53934;52.142;11.738;2022-07-29T09:11:00;9.00;;;3.20;;
67028;SDS011;53934;52.142;11.738;2022-07-29T09:13:26;6.95;;;3.10;;
67028;SDS011;53934;52.142;11.738;2022-07-29T09:15:53;4.85;;;2.75;;
67028;SDS011;53934;52.142;11.738;2022-07-29T09:18:36;6.55;;;2.70;;
67028;SDS011;53934;52.142;11.738;2022-07-29T09:21:04;6.03;;;2.33;;
67028;SDS011;53934;52.142;11.738;2022-07-29T09:26:38;6.63;;;2.30;;
67028;SDS011;53934;52.142;11.738;2022-07-29T09:29:10;6.57;;;2.53;;
67028;SDS011;53934;52.142;11.738;2022-07-29T09:31:38;8.18;;;2.72;;
67028;SDS011;53934;52.142;11.738;2022-07-29T09:34:08;10.52;;;2.80;;
67028;SDS011;53934;52.142;11.738;2022-07-29T09:36:38;8.00;;;2.88;;
67028;SDS011;53934;52.142;11.738;2022-07-29T09:39:06;8.55;;;2.63;;
67028;SDS011;53934;52.142;11.738;2022-07-29T09:41:43;6.47;;;2.63;;
67028;SDS011;53934;52.142;11.738;2022-07-29T09:44:11;7.82;;;2.55;;
67028;SDS011;53934;52.142;11.738;2022-07-29T09:46:38;11.32;;;2.45;;
67028;SDS011;53934;52.142;11.738;2022-07-29T09:49:09;10.85;;;2.33;;
67028;SDS011;53934;52.142;11.738;2022-07-29T09:51:36;4.75;;;2.53;;
67028;SDS011;53934;52.142;11.738;2022-07-29T09:54:04;4.75;;;2.10;;
67028;SDS011;53934;52.142;11.738;2022-07-29T09:56:47;3.40;;;2.05;;
67028;SDS011;53934;52.142;11.738;2022-07-29T09:59:14;6.22;;;2.40;;
67028;SDS011;53934;52.142;11.738;2022-07-29T10:01:40;6.13;;;2.25;;
67028;SDS011;53934;52.142;11.738;2022-07-29T10:04:07;4.75;;;2.17;;
67028;SDS011;53934;52.142;11.738;2022-07-29T10:06:34;4.15;;;2.13;;
67028;SDS011;53934;52.142;11.738;2022-07-29T10:09:07;3.58;;;2.10;;
67028;SDS011;53934;52.142;11.738;2022-07-29T10:11:34;4.57;;;2.00;;
67028;SDS011;53934;52.142;11.738;2022-07-29T10:14:01;7.53;;;2.00;;
67028;SDS011;53934;52.142;11.738;2022-07-29T10:16:28;5.15;;;2.03;;
67028;SDS011;53934;52.142;11.738;2022-07-29T10:18:57;6.50;;;2.30;;
67028;SDS011;53934;52.142;11.738;2022-07-29T10:21:26;7.10;;;2.45;;
67028;SDS011;53934;52.142;11.738;2022-07-29T10:23:52;4.00;;;1.88;;
67028;SDS011;53934;52.142;11.738;2022-07-29T10:26:19;4.85;;;2.10;;
67028;SDS011;53934;52.142;11.738;2022-07-29T10:28:46;5.53;;;1.80;;
67028;SDS011;53934;52.142;11.738;2022-07-29T10:31:14;8.40;;;2.25;;
67028;SDS011;53934;52.142;11.738;2022-07-29T10:33:48;5.07;;;2.10;;
67028;SDS011;53934;52.142;11.738;2022-07-29T10:36:31;4.60;;;2.20;;
67028;SDS011;53934;52.142;11.738;2022-07-29T10:39:08;4.63;;;1.75;;
67028;SDS011;53934;52.142;11.738;2022-07-29T10:42:00;5.32;;;1.98;;
67028;SDS011;53934;52.142;11.738;2022-07-29T10:44:38;5.47;;;2.05;;
67028;SDS011;53934;52.142;11.738;2022-07-29T10:47:06;6.03;;;2.25;;
67028;SDS011;53934;52.142;11.738;2022-07-29T10:49:32;5.85;;;1.90;;
67028;SDS011;53934;52.142;11.738;2022-07-29T10:52:01;6.25;;;1.88;;
67028;SDS011;53934;52.142;11.738;2022-07-29T10:54:36;8.15;;;2.13;;
67028;SDS011;53934;52.142;11.738;2022-07-29T10:57:10;4.30;;;2.15;;
67028;SDS011;53934;52.142;11.738;2022-07-29T10:59:38;6.20;;;2.03;;
67028;SDS011;53934;52.142;11.738;2022-07-29T11:05:05;3.83;;;2.42;;
67028;SDS011;53934;52.142;11.738;2022-07-29T11:07:35;6.57;;;2.40;;
67028;SDS011;53934;52.142;11.738;2022-07-29T11:10:22;4.10;;;2.08;;
67028;SDS011;53934;52.142;11.738;2022-07-29T11:12:49;6.65;;;2.13;;
67028;SDS011;53934;52.142;11.738;2022-07-29T11:15:17;5.65;;;2.15;;
67028;SDS011;53934;52.142;11.738;2022-07-29T11:20:34;4.15;;;2.10;;
67028;SDS011;53934;52.142;11.738;2022-07-29T11:26:13;5.05;;;2.17;;
67028;SDS011;53934;52.142;11.738;2022-07-29T11:28:52;8.75;;;2.17;;
67028;SDS011;53934;52.142;11.738;2022-07-29T11:31:31;5.00;;;2.10;;
67028;SDS011;53934;52.142;11.738;2022-07-29T11:39:43;5.90;;;2.05;;
67028;SDS011;53934;52.142;11.738;2022-07-29T11:45:08;5.78;;;2.60;;
67028;SDS011;53934;52.142;11.738;2022-07-29T11:47:36;9.52;;;1.85;;
67028;SDS011;53934;52.142;11.738;2022-07-29T11:50:04;5.43;;;2.10;;
67028;SDS011;53934;52.142;11.738;2022-07-29T11:52:32;4.78;;;2.05;;
67028;SDS011;53934;52.142;11.738;2022-07-29T11:55:01;5.97;;;2.28;;
67028;SDS011;53934;52.142;11.738;2022-07-29T11:57:29;4.05;;;2.00;;
67028;SDS011;53934;52.142;11.738;2022-07-29T11:59:58;7.50;;;4.07;;
67028;SDS011;53934;52.142;11.738;2022-07-29T12:02:24;8.48;;;3.10;;
67028;SDS011;53934;52.142;11.738;2022-07-29T12:05:04;3.90;;;2.30;;
67028;SDS011;53934;52.142;11.738;2022-07-29T12:07:31;10.45;;;1.98;;
67028;SDS011;53934;52.142;11.738;2022-07-29T12:09:58;6.03;;;2.10;;
67028;SDS011;53934;52.142;11.738;2022-07-29T12:12:25;6.03;;;2.00;;
67028;SDS011;53934;52.142;11.738;2022-07-29T12:14:52;5.75;;;2.42;;
67028;SDS011;53934;52.142;11.738;2022-07-29T12:17:28;5.65;;;2.05;;
67028;SDS011;53934;52.142;11.738;2022-07-29T12:19:55;3.05;;;2.17;;
67028;SDS011;53934;52.142;11.738;2022-07-29T12:22:26;4.47;;;2.00;;
67028;SDS011;53934;52.142;11.738;2022-07-29T12:24:52;4.80;;;2.03;;
67028;SDS011;53934;52.142;11.738;2022-07-29T12:27:19;22.52;;;2.33;;
67028;SDS011;53934;52.142;11.738;2022-07-29T12:29:54;4.68;;;1.92;;
67028;SDS011;53934;52.142;11.738;2022-07-29T12:32:22;5.90;;;2.30;;
67028;SDS011;53934;52.142;11.738;2022-07-29T12:34:50;7.35;;;2.42;;
67028;SDS011;53934;52.142;11.738;2022-07-29T12:37:16;4.50;;;2.50;;
67028;SDS011;53934;52.142;11.738;2022-07-29T12:39:43;4.22;;;2.10;;
67028;SDS011;53934;52.142;11.738;2022-07-29T12:42:11;5.75;;;2.38;;
67028;SDS011;53934;52.142;11.738;2022-07-29T12:44:44;6.72;;;2.22;;
67028;SDS011;53934;52.142;11.738;2022-07-29T12:47:11;3.10;;;1.80;;
67028;SDS011;53934;52.142;11.738;2022-07-29T12:49:38;6.75;;;2.42;;
67028;SDS011;53934;52.142;11.738;2022-07-29T12:54:56;5.72;;;2.00;;
67028;SDS011;53934;52.142;11.738;2022-07-29T12:57:23;5.72;;;2.30;;
67028;SDS011;53934;52.142;11.738;2022-07-29T13:00:06;3.33;;;1.80;;
67028;SDS011;53934;52.142;11.738;2022-07-29T13:02:35;4.18;;;1.80;;
67028;SDS011;53934;52.142;11.738;2022-07-29T13:05:03;3.17;;;2.00;;
67028;SDS011;53934;52.142;11.738;2022-07-29T13:07:33;4.15;;;2.10;;
67028;SDS011;53934;52.142;11.738;2022-07-29T13:10:11;5.78;;;2.30;;
67028;SDS011;53934;52.142;11.738;2022-07-29T13:12:39;9.02;;;2.85;;
67028;SDS011;53934;52.142;11.738;2022-07-29T13:15:26;3.45;;;2.30;;
67028;SDS011;53934;52.142;11.738;2022-07-29T13:17:53;8.13;;;2.13;;
67028;SDS011;53934;52.142;11.738;2022-07-29T13:20:23;2.83;;;2.10;;
67028;SDS011;53934;52.142;11.738;2022-07-29T13:22:51;4.28;;;2.25;;
67028;SDS011;53934;52.142;11.738;2022-07-29T13:25:23;3.20;;;1.95;;
67028;SDS011;53934;52.142;11.738;2022-07-29T13:27:50;4.47;;;2.10;;
67028;SDS011;53934;52.142;11.738;2022-07-29T13:30:16;4.82;;;2.00;;
67028;SDS011;53934;52.142;11.738;2022-07-29T13:32:43;13.13;;;2.15;;
67028;SDS011;53934;52.142;11.738;2022-07-29T13:35:09;8.57;;;2.10;;
67028;SDS011;53934;52.142;11.738;2022-07-29T13:37:36;7.40;;;2.05;;
67028;SDS011;53934;52.142;11.738;2022-07-29T13:40:05;4.85;;;2.38;;
67028;SDS011;53934;52.142;11.738;2022-07-29T13:42:33;4.47;;;2.05;;
67028;SDS011;53934;52.142;11.738;2022-07-29T13:45:00;6.32;;;2.00;;
67028;SDS011;53934;52.142;11.738;2022-07-29T13:47:26;5.95;;;1.90;;
67028;SDS011;53934;52.142;11.738;2022-07-29T13:49:53;5.28;;;2.03;;
67028;SDS011;53934;52.142;11.738;2022-07-29T13:52:20;4.72;;;2.65;;
67028;SDS011;53934;52.142;11.738;2022-07-29T13:54:46;9.13;;;2.45;;
67028;SDS011;53934;52.142;11.738;2022-07-29T13:57:14;10.20;;;2.15;;
67028;SDS011;53934;52.142;11.738;2022-07-29T13:59:41;5.65;;;2.00;;
67028;SDS011;53934;52.142;11.738;2022-07-29T14:02:08;4.95;;;2.20;;
67028;SDS011;53934;52.142;11.738;2022-07-29T14:04:35;10.65;;;2.17;;
67028;SDS011;53934;52.142;11.738;2022-07-29T14:07:02;4.00;;;2.20;;
67028;SDS011;53934;52.142;11.738;2022-07-29T14:09:28;4.45;;;2.20;;
67028;SDS011;53934;52.142;11.738;2022-07-29T14:11:54;4.60;;;2.15;;
67028;SDS011;53934;52.142;11.738;2022-07-29T14:14:22;5.85;;;2.10;;
67028;SDS011;53934;52.142;11.738;2022-07-29T14:16:48;4.55;;;2.00;;
67028;SDS011;53934;52.142;11.738;2022-07-29T14:19:15;6.93;;;2.17;;
67028;SDS011;53934;52.142;11.738;2022-07-29T14:21:41;5.38;;;2.42;;
67028;SDS011;53934;52.142;11.738;2022-07-29T14:24:08;4.28;;;2.20;;
67028;SDS011;53934;52.142;11.738;2022-07-29T14:26:34;5.03;;;2.20;;
67028;SDS011;53934;52.142;11.738;2022-07-29T14:29:01;6.13;;;2.00;;
67028;SDS011;53934;52.142;11.738;2022-07-29T14:31:28;5.10;;;2.40;;
67028;SDS011;53934;52.142;11.738;2022-07-29T14:33:55;7.28;;;2.50;;
67028;SDS011;53934;52.142;11.738;2022-07-29T14:36:21;4.25;;;2.33;;
67028;SDS011;53934;52.142;11.738;2022-07-29T14:38:47;5.00;;;2.00;;
67028;SDS011;53934;52.142;11.738;2022-07-29T14:41:14;7.00;;;2.58;;
67028;SDS011;53934;52.142;11.738;2022-07-29T14:43:41;4.47;;;2.20;;
67028;SDS011;53934;52.142;11.738;2022-07-29T14:46:07;5.97;;;2.75;;
67028;SDS011;53934;52.142;11.738;2022-07-29T14:48:35;3.88;;;1.95;;
67028;SDS011;53934;52.142;11.738;2022-07-29T14:51:01;3.63;;;2.10;;
67028;SDS011;53934;52.142;11.738;2022-07-29T14:53:27;6.05;;;2.00;;
67028;SDS011;53934;52.142;11.738;2022-07-29T14:55:54;7.25;;;2.10;;
67028;SDS011;53934;52.142;11.738;2022-07-29T14:58:20;3.97;;;2.15;;
67028;SDS011;53934;52.142;11.738;2022-07-29T15:00:47;4.90;;;2.00;;
67028;SDS011;53934;52.142;11.738;2022-07-29T15:03:14;2.90;;;2.00;;